Last 6 Hours

Alpine-Summit 8643' (Ward Mt.)

15 Minute Data | America/Los_Angeles
as of 6/19/21 9:14 PM PDT
Date & Time Temp (°F) RH (%) Dew Pt (°F) Wet Bulb (°F) Wind Dir (°) Wind Spd (mph) Wind Gust (mph) WindChill (°F)
6/19/21 - 2100 65.8 37 38.6 50.3 NNE | 31 0.4 3.1 66.1
6/19/21 - 2045 66.6 35 38.5 50.6 NE | 41 0.3 3.1 66.9
6/19/21 - 2030 67.7 34 38.3 51.0 NNE | 30 0.2 1.9 68.6
6/19/21 - 2015 69.3 32 38.1 51.5 NE | 34 0.4 2.7 70.1
6/19/21 - 2000 70.9 30 37.9 52.0 NE | 40 0.3 1.9 72.0
6/19/21 - 1945 72.7 28 37.4 52.5 NE | 41 0.4 3.5 74.1
6/19/21 - 1930 75.8 25 37.2 53.6 NE | 41 0.3 1.8 76.0
6/19/21 - 1915 76.2 23 35.9 53.3 NE | 35 0.4 2.3 76.2
6/19/21 - 1900 76.2 23 36.0 53.3 NE | 36 0.4 3.1 76.6
6/19/21 - 1845 77.2 23 36.7 53.9 NE | 39 0.4 2.5 78.4
6/19/21 - 1830 78.6 23 37.3 54.6 NE | 40 0.3 2.4 78.9
6/19/21 - 1815 80.3 21 37.2 55.2 NE | 39 0.5 2.2 80.3
6/19/21 - 1800 80.3 21 36.6 55.0 NE | 35 0.5 2.9 79.3
6/19/21 - 1745 79.0 22 37.2 54.7 NNE | 32 0.4 3.0 80.4
6/19/21 - 1730 81.2 20 36.7 55.3 NNE | 33 0.4 2.6 80.6
6/19/21 - 1715 80.6 21 37.0 55.2 NE | 34 0.3 1.8 80.6
6/19/21 - 1700 80.3 22 38.6 55.7 NE | 36 0.5 2.6 80.3
6/19/21 - 1645 80.9 22 38.4 55.8 NNE | 31 0.4 2.5 80.3
6/19/21 - 1630 79.8 23 38.4 55.5 NE | 36 0.4 2.2 80.5
6/19/21 - 1615 80.7 23 39.5 56.2 NNE | 30 0.4 2.4 80.7
6/19/21 - 1600 80.4 25 41.2 56.7 NNE | 31 0.5 2.4 79.7
6/19/21 - 1545 79.3 24 39.5 55.7 NNE | 28 0.8 3.5 78.9
6/19/21 - 1530 77.9 26 40.8 55.7 NNE | 32 0.7 2.7 75.7
6/19/21 - 1515 77.2 25 39.0 54.7 NNE | 26 0.5 2.4 76.7
Max 81.2 37 41.2 56.7 - 0.8 3.5 80.7
Avg 76.5 25 38.0 54.1 - 0.4 2.6 76.6
Min 65.8 20 35.9 50.3 - 0.2 1.8 66.1